Hauptseite
METAR-TAF:

METAR-TAF

Flughäfen :

Flughafen Arctic Bay

Arctic Bay, Nunavut, Kanada

Breite: 73-00-23N, Länge: 085-02-50W, Höhe: 22 m

Beobachtung

Neuester Wetterbericht von vor 38 Minuten, um 16:00 UTC
Windstille
Temperatur -29°C
Luftfeuchtigkeit 75%
Luftdruck 1024 hPa
Sichtweite: 48.3 km
Leicht bewölkt in der Höhe von 800 ft
Leicht bewölkt in der Höhe von 2500 ft
Leicht bewölkt in der Höhe von 8000 ft
Eisnadeln

METAR: CYAB 251600Z 00000KT 30SM IC FEW008 FEW025 FEW080 M29/M32 A3025 RMK SC1SC1AC1 SC TR SC TR AC TR SLP250

Zeit: 11:38 (16:38 UTC)

Prognose

Neuester Wetterbericht von vor 3 Stunden und 0 Minuten, um 13:38 UTC
Gültige Prognose vom 25 um 14 UTC bis 25 um 21 UTC
Wind 3 kt aus unterschiedlichen Richtungen
Sichtweite: 10 km
Leicht bewölkt in der Höhe von 500 ft

TAF: CYAB 251338Z 2514/2521 VRB03KT P6SM FEW005 RMK NXT FCST WILL BE ISSUED AT 261345Z

Wetterbeobachtungen und Prognosen von mehr als 4000 Flughäfen (METAR und TAF Bericht).

Die verfügbaren Stationen werden durch gelbe und rote Markierungen auf der Karte dargestellt.

Führen Sie die Maus auf sie, um den Namen der Station zu sehen.

Darauf klicken, um die Beobachtung von Wetterbeobachtungen und Prognosen zu sehen.

Um die Karte zu ändern : klicken Sie auf den grünen Tasten mit einem schwarzen Kreuz Zum Vergrößern, auf den grünen Button mit einem Gedankenstrich zu verkleinern, oder auf die grünen Pfeile für benachbarte Karten.


METAR-TAF: